Main page
METAR-TAF:

METAR-TAF

Airports :

Ingeniero Aeronáutico Ambrosio L.V. Taravella International Airport

Córdoba, Argentina

latitude: 31-19S, longitude: 064-13W, elevation: 484 m

Current weather observation

The report was made 34 minutes ago, at 11:00 UTC
Wind 4 kt from the North
Temperature 10°C
Humidity 87%
Pressure 1020 hPa
Visibility 10 km or more
no clouds below 1500 m and no cumulonimbus

METAR: SACO 091100Z 36004KT CAVOK 10/08 Q1020 NOSIG

Time: 08:34 (11:34 UTC)

Forecast

The report was made 6 hours and 34 minutes ago, at 05:00 UTC
Forecast valid from 09 at 06 UTC to 10 at 06 UTC
Wind 5 kt from the North/Northwest
Visibility 10 km or more
no clouds below 1500 m and no cumulonimbus
Becoming
from 09 at 12 UTC to 09 at 14 UTC
Wind 10 kt from the Northeast

TAF: SACO 090500Z 0906/1006 34005KT CAVOK TX22/0921Z TN05/0910Z BECMG 0912/0914 05010KT

Weather observations and forecasts of more than 4000 airports (METAR and TAF reports).

The available stations are represented by yellow and red dots on the map.

Hover mouse over dot to see the name of the station.

Then click to see weather observations and forecasts.

To change the map : click on the green buttons with a black cross to zoom in, on the green button with a dash to zoom out, or on the green arrows for adjacent maps.


METAR-TAF: